Latest Weather Observations for Norah Head

IDN60801

Issued at 10:32 pm EDT Thursday 23 February 2017 (issued every 30 minutes, with the page automatically refreshed every 10 minutes)

About weather observations | Map of weather stations | Latest weather observations for NSW | Other Formats
Station Details ID: 061366 Name: NORAH HEAD AWS Lat: -33.28 Lon: 151.58 Height: 18.8 m
Data from the previous 72 hours. | See also: Recent months at Norah Head
Date/Time
EDT
Temp
°C
App
Temp
°C
Dew
Point
°C
Rel
Hum
%
Delta-T
°C
Wind Press
QNH
hPa
Press
MSL
hPa
Rain since
9am
mm
Dir  Spd
km/h
Gust
km/h
Spd
kts
Gust
kts
23/10:30pm 20.5 21.5 19.5 94 0.6 N 13 17 7 9 1018.3 1018.2 0.0
23/10:00pm 20.5 20.3 19.3 93 0.8 N 19 20 10 11 1018.2 1018.1 0.0
23/09:30pm 20.8 19.6 19.3 91 0.9 NNE 24 28 13 15 1018.1 1018.0 0.0
23/09:00pm 21.0 19.4 19.3 90 1.1 NNE 26 28 14 15 1018.0 1017.9 0.0
23/08:30pm 21.3 19.0 19.4 89 1.2 NNE 30 35 16 19 1017.6 1017.5 0.0
23/08:00pm 21.5 19.8 19.8 90 1.1 NNE 28 32 15 17 1017.5 1017.4 0.0
23/07:30pm 21.6 19.8 19.5 88 1.3 NNE 28 32 15 17 1017.3 1017.2 0.0
23/07:00pm 21.7 19.8 19.3 86 1.5 NNE 28 32 15 17 1017.1 1017.0 0.0
23/06:30pm 22.0 19.9 19.0 83 1.9 NNE 28 32 15 17 1017.2 1017.1 0.0
23/06:00pm 22.3 19.8 18.9 81 2.1 NNE 30 35 16 19 1017.0 1016.9 0.0
23/05:30pm 22.6 19.6 18.6 78 2.5 NE 32 37 17 20 1016.9 1016.8 0.0
23/05:00pm 23.2 20.7 18.9 77 2.7 NE 30 35 16 19 1016.9 1016.8 0.0
23/04:30pm 23.2 21.6 19.2 78 2.5 NE 26 30 14 16 1017.2 1017.1 0.0
23/04:00pm 23.4 22.5 19.1 77 2.7 NE 22 26 12 14 1017.3 1017.2 0.0
23/03:30pm 23.8 22.6 19.3 76 2.9 NE 24 30 13 16 1017.3 1017.2 0.0
23/03:00pm 24.2 22.6 19.1 73 3.2 NE 26 30 14 16 1017.6 1017.5 0.0
23/02:30pm 24.6 23.0 19.2 72 3.5 NE 26 32 14 17 1017.9 1017.8 0.0
23/02:00pm 25.6 24.2 19.7 70 3.8 NE 26 32 14 17 1018.1 1018.0 0.0
23/01:30pm 26.3 25.7 20.4 70 3.9 NE 24 28 13 15 1018.3 1018.2 0.0
23/01:00pm 27.7 28.0 20.8 66 4.6 NE 20 28 11 15 1018.7 1018.6 0.0
23/12:30pm 27.1 27.3 20.2 66 4.5 NE 19 20 10 11 1019.0 1018.9 0.0
23/12:00pm 27.3 27.7 20.6 67 4.4 NE 19 20 10 11 1019.2 1019.1 0.0
23/11:30am 26.9 27.2 20.5 68 4.2 NE 19 20 10 11 1019.3 1019.2 0.0
23/11:00am 26.0 26.1 19.9 69 4.0 NE 19 20 10 11 1019.6 1019.5 0.0
23/10:30am 25.7 26.1 19.8 70 3.8 NE 17 20 9 11 1019.7 1019.6 0.0
23/10:00am 24.6 24.7 19.9 75 3.0 NE 19 20 10 11 1019.8 1019.7 0.0
23/09:30am 23.1 22.7 18.8 77 2.7 NNE 19 20 10 11 1019.9 1019.8 0.0
23/09:00am 22.9 22.4 19.1 79 2.4 NNE 20 22 11 12 1019.8 1019.7 0.0
23/08:30am 22.4 22.1 19.2 82 2.0 N 19 24 10 13 1019.5 1019.4 0.0
23/08:00am 21.8 22.1 19.7 88 1.3 N 17 20 9 11 1019.3 1019.2 0.0
23/07:30am 20.9 21.2 19.7 93 0.8 N 17 19 9 10 1019.1 1019.0 0.0
23/07:00am 20.2 20.1 19.5 96 0.4 NNE 19 20 10 11 1018.7 1018.6 0.0
23/06:30am 20.0 20.5 19.3 96 0.4 N 15 19 8 10 1018.5 1018.4 0.0
23/06:00am 20.2 20.1 19.5 96 0.4 NNE 19 20 10 11 1018.3 1018.2 0.0
23/05:30am 20.4 20.7 19.6 95 0.5 NNE 17 20 9 11 1018.2 1018.1 0.0
23/05:00am 20.4 20.7 19.6 95 0.5 NNE 17 20 9 11 1018.3 1018.2 0.0
23/04:30am 20.3 21.4 19.6 96 0.4 N 13 17 7 9 1018.3 1018.2 0.0
23/04:00am 20.4 20.7 19.6 95 0.5 N 17 19 9 10 1018.2 1018.1 0.0
23/03:30am 20.7 20.6 19.5 93 0.8 NNE 19 22 10 12 1018.1 1018.0 0.0
23/03:00am 20.8 20.5 19.5 92 0.8 NNE 20 24 11 13 1018.2 1018.1 0.0
23/02:30am 20.9 19.8 19.4 91 1.0 NNE 24 28 13 15 1018.2 1018.1 0.0
23/02:00am 21.0 19.9 19.5 91 1.0 NNE 24 28 13 15 1018.4 1018.3 0.0
23/01:30am 21.2 19.7 19.5 90 1.1 NNE 26 30 14 16 1018.6 1018.5 0.0
23/01:00am 21.2 19.7 19.5 90 1.1 NNE 26 30 14 16 1018.6 1018.5 0.0
23/12:30am 21.3 19.2 19.0 87 1.5 NNE 28 32 15 17 1018.7 1018.6 0.0
23/12:00am 21.4 19.4 19.1 87 1.5 NNE 28 32 15 17 1018.7 1018.6 0.0
 
Date/Time
EDT
Temp
°C
App
Temp
°C
Dew
Point
°C
Rel
Hum
%
Delta-T
°C
Wind Press
QNH
hPa
Press
MSL
hPa
Rain since
9am
mm
Dir  Spd
km/h
Gust
km/h
Spd
kts
Gust
kts
22/11:30pm 21.4 19.0 19.0 86 1.5 NNE 30 33 16 18 1018.7 1018.6 0.0
22/11:00pm 21.6 18.9 19.2 86 1.5 NNE 32 37 17 20 1018.8 1018.7 0.0
22/10:30pm 21.8 17.9 18.8 83 1.9 NNE 37 43 20 23 1018.8 1018.7 0.0
22/10:00pm 21.9 18.5 18.9 83 1.9 NNE 35 43 19 23 1018.8 1018.7 0.0
22/09:30pm 22.1 17.9 18.9 82 2.0 NNE 39 43 21 23 1018.6 1018.5 0.0
22/09:00pm 22.3 17.7 18.9 81 2.1 NE 41 48 22 26 1018.2 1018.1 0.0
22/08:30pm 22.2 17.8 19.2 83 1.9 NE 41 48 22 26 1017.9 1017.8 0.0
22/08:00pm 22.3 18.3 19.3 83 1.9 NE 39 46 21 25 1017.6 1017.5 0.0
22/07:30pm 22.4 18.7 19.2 82 2.0 NE 37 43 20 23 1017.4 1017.3 0.0
22/07:00pm 22.6 18.9 19.2 81 2.2 NE 37 43 20 23 1017.3 1017.2 0.0
22/06:30pm 22.9 19.6 19.3 80 2.3 NE 35 39 19 21 1017.5 1017.4 0.0
22/06:00pm 23.3 20.5 19.0 77 2.7 NE 32 35 17 19 1017.6 1017.5 0.0
22/05:30pm 23.6 21.1 18.9 75 3.0 NE 30 35 16 19 1017.8 1017.7 0.0
22/05:00pm 24.2 21.4 19.1 73 3.2 NE 32 35 17 19 1017.8 1017.7 0.0
22/04:30pm 24.7 22.3 19.1 71 3.6 NE 30 35 16 19 1017.9 1017.8 0.0
22/04:00pm 25.7 23.3 19.1 67 4.2 NE 30 33 16 18 1018.0 1017.9 0.0
22/03:30pm 26.8 24.5 19.4 64 4.8 NE 30 35 16 19 1018.4 1018.3 0.0
22/03:00pm 27.2 25.0 19.5 62 5.0 NE 30 33 16 18 1018.7 1018.6 0.0
22/02:30pm 27.8 25.7 19.8 61 5.2 NE 30 33 16 18 1019.0 1018.9 0.0
22/02:00pm 27.7 25.9 19.5 61 5.3 NE 28 35 15 19 1019.3 1019.2 0.0
22/01:30pm 27.9 25.8 19.7 61 5.3 NE 30 35 16 19 1019.7 1019.6 0.0
22/01:00pm 27.9 26.6 19.9 61 5.2 NE 26 32 14 17 1019.9 1019.8 0.0
22/12:30pm 27.9 26.6 19.9 61 5.2 NE 26 30 14 16 1020.3 1020.2 0.0
22/12:00pm 27.7 26.9 20.0 63 5.0 NE 24 28 13 15 1020.8 1020.7 0.0
22/11:30am 27.2 28.2 20.3 66 4.5 ENE 15 19 8 10 1021.2 1021.1 0.0
22/11:00am 27.0 28.5 20.6 68 4.2 NE 13 15 7 8 1021.5 1021.4 0.0
22/10:30am 25.3 26.0 19.7 71 3.6 NE 15 17 8 9 1021.5 1021.4 0.0
22/10:00am 24.5 25.2 19.6 74 3.1 NNE 15 17 8 9 1021.5 1021.4 0.0
22/09:30am 23.8 24.6 19.9 79 2.5 NNE 15 17 8 9 1021.5 1021.4 0.0
22/09:00am 23.7 24.5 19.8 79 2.5 NNE 15 19 8 10 1021.3 1021.2 0.0
22/08:30am 22.6 23.4 19.9 85 1.7 NNE 15 17 8 9 1021.2 1021.1 0.0
22/08:00am 22.3 22.6 19.5 84 1.8 NNE 17 20 9 11 1020.9 1020.8 0.0
22/07:30am 22.1 21.8 19.5 85 1.7 NNE 20 24 11 13 1020.6 1020.5 0.0
22/07:00am 21.2 21.5 19.5 90 1.1 NNE 17 19 9 10 1020.2 1020.1 0.0
22/06:30am 21.2 20.8 19.3 89 1.2 NNE 20 22 11 12 1019.9 1019.8 0.0
22/06:00am 21.1 20.6 19.2 89 1.2 NE 20 24 11 13 1019.7 1019.6 0.0
22/05:30am 21.0 20.9 19.5 91 1.0 NE 19 20 10 11 1019.6 1019.5 0.0
22/05:00am 21.0 21.3 19.7 92 0.8 NE 17 20 9 11 1019.5 1019.4 0.0
22/04:30am 21.1 21.0 19.6 91 1.0 NE 19 20 10 11 1019.3 1019.2 0.0
22/04:00am 21.1 21.3 19.4 90 1.1 NE 17 20 9 11 1019.2 1019.1 0.0
22/03:30am 21.2 21.2 19.7 91 1.0 NE 19 20 10 11 1019.1 1019.0 0.0
22/03:00am 21.3 21.6 19.6 90 1.1 NE 17 20 9 11 1019.3 1019.2 0.0
22/02:30am 21.4 21.7 19.5 89 1.2 NE 17 20 9 11 1019.6 1019.5 0.0
22/02:00am 21.3 21.1 19.4 89 1.2 NE 19 20 10 11 1019.9 1019.8 0.0
22/01:30am 21.3 21.0 19.2 88 1.3 NE 19 22 10 12 1020.1 1020.0 0.0
22/01:00am 21.3 21.1 19.4 89 1.2 NE 19 20 10 11 1020.3 1020.2 0.0
22/12:30am 21.3 21.0 19.2 88 1.3 NE 19 20 10 11 1020.6 1020.5 0.0
22/12:00am 21.2 20.8 18.9 87 1.4 NE 19 20 10 11 1020.7 1020.6 0.0
 
Date/Time
EDT
Temp
°C
App
Temp
°C
Dew
Point
°C
Rel
Hum
%
Delta-T
°C
Wind Press
QNH
hPa
Press
MSL
hPa
Rain since
9am
mm
Dir  Spd
km/h
Gust
km/h
Spd
kts
Gust
kts
21/11:30pm 21.6 21.1 19.0 85 1.6 NE 20 22 11 12 1020.6 1020.5 0.0
21/11:00pm 21.7 20.8 19.1 85 1.6 NE 22 24 12 13 1020.7 1020.6 0.0
21/10:30pm 21.8 20.3 18.6 82 2.0 NE 24 30 13 16 1020.8 1020.7 0.0
21/10:00pm 21.8 20.2 18.4 81 2.1 NE 24 28 13 15 1021.1 1021.0 0.0
21/09:30pm 22.1 20.1 18.3 79 2.4 NE 26 32 14 17 1020.7 1020.6 0.0
21/09:00pm 22.1 20.1 18.3 79 2.4 NE 26 30 14 16 1020.5 1020.4 0.0
21/08:30pm 22.2 20.2 18.2 78 2.5 NE 26 30 14 16 1020.3 1020.2 0.0
21/08:00pm 22.0 19.8 17.8 77 2.6 NE 26 32 14 17 1020.1 1020.0 0.0
21/07:30pm 22.3 20.0 17.7 75 2.9 NE 26 32 14 17 1019.9 1019.8 0.0
21/07:00pm 23.0 20.8 17.9 73 3.2 NE 26 32 14 17 1019.3 1019.2 0.0
21/06:30pm 24.3 23.4 17.8 67 4.1 NE 19 24 10 13 1018.9 1018.8 0.0
21/06:00pm 25.0 23.9 17.2 62 4.8 NE 19 22 10 12 1018.7 1018.6 0.0
21/05:30pm 25.5 24.7 17.9 63 4.8 NE 19 22 10 12 1018.5 1018.4 0.0
21/05:00pm 26.4 26.0 18.0 60 5.3 ENE 17 19 9 10 1018.4 1018.3 0.0
21/04:30pm 27.1 26.9 18.4 59 5.5 ENE 17 20 9 11 1018.2 1018.1 0.0
21/04:00pm 26.9 27.1 18.5 60 5.3 ENE 15 19 8 10 1018.2 1018.1 0.0
21/03:30pm 25.4 26.3 17.6 62 4.9 E 9 11 5 6 1018.2 1018.1 0.0
21/03:00pm 25.6 26.5 17.5 61 5.1 ESE 9 11 5 6 1018.3 1018.2 0.0
21/02:30pm 26.1 27.0 17.5 59 5.4 SE 9 11 5 6 1018.7 1018.6 0.0
21/02:00pm 26.2 27.5 19.3 65 4.4 S 11 13 6 7 1019.0 1018.9 0.0
21/01:30pm 25.0 26.2 19.1 70 3.8 SSW 11 15 6 8 1019.3 1019.2 0.0
21/01:00pm 24.5 24.6 18.4 69 3.8 SSW 15 20 8 11 1019.6 1019.5 0.0
21/12:30pm 23.4 23.0 17.2 68 3.8 SSW 15 19 8 10 1019.7 1019.6 0.0
21/12:00pm 23.4 22.3 16.4 64 4.3 SSW 17 20 9 11 1020.0 1019.9 0.0
21/11:30am 22.9 21.4 15.2 62 4.6 SSW 17 22 9 12 1020.1 1020.0 0.0
21/11:00am 23.1 22.2 14.9 60 4.9 SSW 13 17 7 9 1020.2 1020.1 0.0
21/10:30am 21.9 20.9 13.3 58 4.9 SSW 11 15 6 8 1020.2 1020.1 0.0
21/10:00am 21.8 20.1 12.4 55 5.3 SSW 13 17 7 9 1019.9 1019.8 0.0
21/09:30am 21.7 19.8 11.7 53 5.6 SSW 13 17 7 9 1019.5 1019.4 0.0
21/09:00am 20.4 18.5 10.5 53 5.4 SSW 11 17 6 9 1019.2 1019.1 0.0
21/08:30am 19.9 18.8 11.9 60 4.4 SW 9 15 5 8 1018.9 1018.8 0.0
21/08:00am 19.2 18.9 13.2 68 3.4 SW 7 13 4 7 1018.4 1018.3 0.0
21/07:30am 18.3 17.6 14.4 78 2.2 SW 11 17 6 9 1018.0 1017.9 0.0
21/07:00am 18.2 17.2 14.7 80 2.0 SW 13 19 7 10 1017.7 1017.6 0.0
21/06:30am 18.4 18.5 15.6 84 1.7 SW 9 11 5 6 1017.2 1017.1 0.0
21/06:00am 18.7 18.6 16.1 85 1.5 SW 11 15 6 8 1016.9 1016.8 0.0
21/05:30am 19.1 19.4 16.0 82 1.8 SW 9 13 5 7 1016.6 1016.5 0.0
21/05:00am 19.2 19.6 15.3 78 2.3 SW 7 11 4 6 1016.3 1016.2 0.0
21/04:30am 19.1 19.6 15.6 80 2.1 SW 7 9 4 5 1016.4 1016.3 0.0
21/04:00am 19.0 20.9 15.7 81 2.0 CALM 0 0 0 0 1016.3 1016.2 0.0
21/03:30am 19.3 21.2 15.8 80 2.1 CALM 0 0 0 0 1016.1 1016.0 0.0
21/03:00am 19.1 20.6 15.6 80 2.1 NW 2 4 1 2 1016.2 1016.1 0.0
21/02:30am 19.1 19.8 15.6 80 2.1 NW 6 6 3 3 1016.1 1016.0 0.0
21/02:00am 19.2 19.8 15.3 78 2.3 NW 6 9 3 5 1016.1 1016.0 0.0
21/01:30am 19.3 19.8 15.0 76 2.5 NW 6 9 3 5 1016.4 1016.3 0.0
21/01:00am 19.1 18.9 14.6 75 2.6 NNW 9 11 5 6 1016.4 1016.3 0.0
21/12:30am 19.4 19.0 14.2 72 3.0 NNW 9 11 5 6 1016.5 1016.4 0.0
21/12:00am 20.0 19.3 14.4 70 3.3 N 11 13 6 7 1016.4 1016.3 0.0
 
Date/Time
EDT
Temp
°C
App
Temp
°C
Dew
Point
°C
Rel
Hum
%
Delta-T
°C
Wind Press
QNH
hPa
Press
MSL
hPa
Rain since
9am
mm
Dir  Spd
km/h
Gust
km/h
Spd
kts
Gust
kts
20/11:30pm 20.0 19.2 13.9 68 3.5 N 11 13 6 7 1016.2 1016.1 0.0
20/11:00pm 20.1 19.6 14.9 72 3.0 N 11 13 6 7 1016.0 1015.9 0.0

Other Formats:

Comma delimited format used in spreadsheet applications
http://www.bom.gov.au/fwo/IDN60801/IDN60801.95770.axf

JavaScript Object Notation format (JSON) in row-major order
http://www.bom.gov.au/fwo/IDN60801/IDN60801.95770.json